Wavelength — 2BKW6 — position and weather

sailwx.info

Track history (hours):
 
Tides and Currents Weather Stations Pressure Air Temp Water Temp Dewpoint Dewpoint Depression Visibility Wind Speed Wind Dir Waves Ship Positions

Wavelength

Last reported at 2017-Oct-27 05:37 UTC. Time now 2017-Dec-18 20:45 UTC.
Position N 37°25' E 023°08'.
Warning: this ship's position is 52 days out of date.

Length 14 m; draft 2 m.

Type: Sailing vessel. MMSI: 235067012.

Date/timePositionNaut miles runAvg speedWind from/ knotsBaromVisibWave heightAir tempDewpointWater temp
2017-Oct-27 05:37N 37°25' E 023°08'0 0.0
2017-Oct-26 14:50N 37°25' E 023°08'0 0.0
2017-Oct-26 14:28N 37°25' E 023°08'0 0.0
2017-Oct-26 13:58N 37°25' E 023°08'1 2.2
2017-Oct-26 13:30N 37°25' E 023°07'1 2.8
2017-Oct-26 13:00N 37°25' E 023°06'2 4.6
2017-Oct-26 12:30N 37°24' E 023°03'3 5.7
2017-Oct-26 12:00N 37°21' E 023°04'3 5.8
2017-Oct-26 11:30N 37°19' E 023°07'3 5.4
2017-Oct-26 11:00N 37°17' E 023°09'2 3.5
2017-Oct-26 10:30N 37°17' E 023°11'2 4.7
2017-Oct-26 10:00N 37°18' E 023°14'2 4.6
2017-Oct-26 09:30N 37°20' E 023°16'3 5.2
2017-Oct-26 09:00N 37°21' E 023°19'3 5.2
2017-Oct-26 08:30N 37°22' E 023°22'3 5.9
2017-Oct-26 08:00N 37°23' E 023°25'3 6.0
2017-Oct-26 07:30N 37°25' E 023°29'3 5.4
2017-Oct-26 07:00N 37°26' E 023°32'3 5.2
2017-Oct-26 06:30N 37°28' E 023°31'3 5.3
2017-Oct-26 06:00N 37°30' E 023°28'  
2017-Oct-23 13:48N 37°30' E 023°27'0 0.1
2017-Oct-23 13:28N 37°30' E 023°27'3 5.4
2017-Oct-23 13:00N 37°29' E 023°30'3 5.7
2017-Oct-23 12:30N 37°29' E 023°34'3 6.5
2017-Oct-23 12:00N 37°29' E 023°38'3 6.5
2017-Oct-23 11:30N 37°28' E 023°42'4 7.0
2017-Oct-23 11:00N 37°28' E 023°47'4 7.3
2017-Oct-23 10:30N 37°27' E 023°51'3 6.2
2017-Oct-23 10:00N 37°27' E 023°55'2 4.4
2017-Oct-23 09:30N 37°27' E 023°58'3 5.4
2017-Oct-23 09:00N 37°26' E 024°01'3 5.0
2017-Oct-23 08:30N 37°26' E 024°04'2 4.5
2017-Oct-23 08:00N 37°26' E 024°07'2 3.8
2017-Oct-23 07:30N 37°26' E 024°09'3 5.3
2017-Oct-23 07:00N 37°26' E 024°13'2 4.3
2017-Oct-23 06:30N 37°27' E 024°15'3 5.9
2017-Oct-23 06:00N 37°27' E 024°19'3 5.2
2017-Oct-23 05:30N 37°28' E 024°22'2 4.2
2017-Oct-23 05:00N 37°29' E 024°25'2 3.0
2017-Oct-23 04:30N 37°28' E 024°26'2 0.1
2017-Oct-22 14:25N 37°27' E 024°26'2 5.0
2017-Oct-22 14:00N 37°26' E 024°28'3 6.6
2017-Oct-22 13:30N 37°26' E 024°32'2 4.9
2017-Oct-22 13:00N 37°25' E 024°35'3 5.2
2017-Oct-22 12:30N 37°25' E 024°38'3 5.2
2017-Oct-22 12:00N 37°24' E 024°42'3 5.3
2017-Oct-22 11:30N 37°24' E 024°45'3 5.4
2017-Oct-22 11:00N 37°23' E 024°48'3 5.2
2017-Oct-22 10:30N 37°23' E 024°52'2 3.9
2017-Oct-22 10:01N 37°21' E 024°53'1 1.8
2017-Oct-22 09:30N 37°21' E 024°54'1 2.8
2017-Oct-22 09:00N 37°22' E 024°55'2 5.0
2017-Oct-22 08:30N 37°23' E 024°58'2 4.6
2017-Oct-22 08:00N 37°26' E 024°58'1 0.0
2017-Oct-21 14:00N 37°26' E 024°57'2 5.0
2017-Oct-21 13:30N 37°26' E 024°60'2 5.0
2017-Oct-21 13:00N 37°26' E 025°03'2 4.4
2017-Oct-21 12:30N 37°27' E 025°05'3 5.3
2017-Oct-21 12:00N 37°28' E 025°09'2 4.7
2017-Oct-21 11:30N 37°28' E 025°12'2 4.9
2017-Oct-21 11:00N 37°28' E 025°15'2 5.0
2017-Oct-21 10:30N 37°28' E 025°18'  
Track history (hours):
 
Tides and Currents Weather Stations Pressure Air Temp Water Temp Dewpoint Dewpoint Depression Visibility Wind Speed Wind Dir Waves Ship Positions

Wavelength

Last reported at 2017-Oct-27 05:37 UTC. Time now 2017-Dec-18 20:45 UTC.
Position N 37°25' E 023°08'.
Warning: this ship's position is 52 days out of date.

Length 14 m; draft 2 m.

Type: Sailing vessel. MMSI: 235067012.

Date/timePositionNaut miles runAvg speedWind from/ knotsBaromVisibWave heightAir tempDewpointWater temp
2017-Oct-27 05:37N 37°25' E 023°08'0 0.0
2017-Oct-26 14:50N 37°25' E 023°08'0 0.0
2017-Oct-26 14:28N 37°25' E 023°08'0 0.0
2017-Oct-26 13:58N 37°25' E 023°08'1 2.2
2017-Oct-26 13:30N 37°25' E 023°07'1 2.8
2017-Oct-26 13:00N 37°25' E 023°06'2 4.6
2017-Oct-26 12:30N 37°24' E 023°03'3 5.7
2017-Oct-26 12:00N 37°21' E 023°04'3 5.8
2017-Oct-26 11:30N 37°19' E 023°07'3 5.4
2017-Oct-26 11:00N 37°17' E 023°09'2 3.5
2017-Oct-26 10:30N 37°17' E 023°11'2 4.7
2017-Oct-26 10:00N 37°18' E 023°14'2 4.6
2017-Oct-26 09:30N 37°20' E 023°16'3 5.2
2017-Oct-26 09:00N 37°21' E 023°19'3 5.2
2017-Oct-26 08:30N 37°22' E 023°22'3 5.9
2017-Oct-26 08:00N 37°23' E 023°25'3 6.0
2017-Oct-26 07:30N 37°25' E 023°29'3 5.4
2017-Oct-26 07:00N 37°26' E 023°32'3 5.2
2017-Oct-26 06:30N 37°28' E 023°31'3 5.3
2017-Oct-26 06:00N 37°30' E 023°28'  
2017-Oct-23 13:48N 37°30' E 023°27'0 0.1
2017-Oct-23 13:28N 37°30' E 023°27'3 5.4
2017-Oct-23 13:00N 37°29' E 023°30'3 5.7
2017-Oct-23 12:30N 37°29' E 023°34'3 6.5
2017-Oct-23 12:00N 37°29' E 023°38'3 6.5
2017-Oct-23 11:30N 37°28' E 023°42'4 7.0
2017-Oct-23 11:00N 37°28' E 023°47'4 7.3
2017-Oct-23 10:30N 37°27' E 023°51'3 6.2
2017-Oct-23 10:00N 37°27' E 023°55'2 4.4
2017-Oct-23 09:30N 37°27' E 023°58'3 5.4
2017-Oct-23 09:00N 37°26' E 024°01'3 5.0
2017-Oct-23 08:30N 37°26' E 024°04'2 4.5
2017-Oct-23 08:00N 37°26' E 024°07'2 3.8
2017-Oct-23 07:30N 37°26' E 024°09'3 5.3
2017-Oct-23 07:00N 37°26' E 024°13'2 4.3
2017-Oct-23 06:30N 37°27' E 024°15'3 5.9
2017-Oct-23 06:00N 37°27' E 024°19'3 5.2
2017-Oct-23 05:30N 37°28' E 024°22'2 4.2
2017-Oct-23 05:00N 37°29' E 024°25'2 3.0
2017-Oct-23 04:30N 37°28' E 024°26'2 0.1
2017-Oct-22 14:25N 37°27' E 024°26'2 5.0
2017-Oct-22 14:00N 37°26' E 024°28'3 6.6
2017-Oct-22 13:30N 37°26' E 024°32'2 4.9
2017-Oct-22 13:00N 37°25' E 024°35'3 5.2
2017-Oct-22 12:30N 37°25' E 024°38'3 5.2
2017-Oct-22 12:00N 37°24' E 024°42'3 5.3
2017-Oct-22 11:30N 37°24' E 024°45'3 5.4
2017-Oct-22 11:00N 37°23' E 024°48'3 5.2
2017-Oct-22 10:30N 37°23' E 024°52'2 3.9
2017-Oct-22 10:01N 37°21' E 024°53'1 1.8
2017-Oct-22 09:30N 37°21' E 024°54'1 2.8
2017-Oct-22 09:00N 37°22' E 024°55'2 5.0
2017-Oct-22 08:30N 37°23' E 024°58'2 4.6
2017-Oct-22 08:00N 37°26' E 024°58'1 0.0
2017-Oct-21 14:00N 37°26' E 024°57'2 5.0
2017-Oct-21 13:30N 37°26' E 024°60'2 5.0
2017-Oct-21 13:00N 37°26' E 025°03'2 4.4
2017-Oct-21 12:30N 37°27' E 025°05'3 5.3
2017-Oct-21 12:00N 37°28' E 025°09'2 4.7
2017-Oct-21 11:30N 37°28' E 025°12'2 4.9
2017-Oct-21 11:00N 37°28' E 025°15'2 5.0
2017-Oct-21 10:30N 37°28' E 025°18'  

Dump ship's entire track history